PWSweather.com
Personal Weather Stations
Station Observations

YeovilGB

Lat: 50.949, Lon: -2.627

Elevation: 70

Station Type: Vantage Pro

http://www.yeovil-weather.me.uk/

High Low Average
Temperature 72.3°F22.4°C 57.6°F14.2°C 63.4°F17.4°C
Dew Point 58.2°F14.6°C 54.6°F12.6°C 56.1°F13.4°C
Winds 6.9 mph 11.1 kmh Calm Calm 2.0 mph W3.2 kmh W
Wind Gusts 12.7 mph20.4 kmh -- 6.0 mph9.7 kmh
Humidity 91% 55% 78%
Pressure 30.10 in1019.3 mb 29.93 in1013.5 mb -
Precipitation 0.00 in0.0 mm - -
Hour Temp Dew Point Humidity Winds Wind Gusts Pressure Precip Precip Rate Daily Precip Total
12:00 AM 58.9°F14.9°C 55.7°F13.2°C 89% 3.5 mph WNW5.6 kmh WNW 6.9 mph11.1 kmh 29.93 in1013.5 mb - 0.00 in0.0 mm 0.00 in0.0 mm
12:10 AM 58.9°F14.9°C 55.7°F13.2°C 89% 1.2 mph W1.9 kmh W 4.6 mph7.4 kmh 29.94 in1013.9 mb - 0.00 in0.0 mm 0.00 in0.0 mm
12:20 AM 58.9°F14.9°C 55.7°F13.2°C 89% 1.2 mph NW1.9 kmh NW 3.5 mph5.6 kmh 29.94 in1013.9 mb - 0.00 in0.0 mm 0.00 in0.0 mm
12:30 AM 58.8°F14.9°C 55.6°F13.1°C 89% 1.2 mph W1.9 kmh W 4.6 mph7.4 kmh 29.94 in1013.9 mb - 0.00 in0.0 mm 0.00 in0.0 mm
12:40 AM 58.8°F14.9°C 55.5°F13.1°C 89% 1.2 mph W1.9 kmh W 5.8 mph9.3 kmh 29.95 in1014.2 mb - 0.00 in0.0 mm 0.00 in0.0 mm
12:50 AM 58.7°F14.8°C 55.5°F13.1°C 89% 3.5 mph NW5.6 kmh NW 6.9 mph11.1 kmh 29.95 in1014.2 mb - 0.00 in0.0 mm 0.00 in0.0 mm
01:00 AM 58.7°F14.8°C 55.4°F13.0°C 89% Calm Calm 3.5 mph5.6 kmh 29.95 in1014.2 mb - 0.00 in0.0 mm 0.00 in0.0 mm
01:10 AM 58.6°F14.8°C 55.4°F13.0°C 89% Calm Calm 2.3 mph3.7 kmh 29.95 in1014.2 mb - 0.00 in0.0 mm 0.00 in0.0 mm
01:20 AM 58.6°F14.8°C 55.4°F13.0°C 89% 1.2 mph NW1.9 kmh NW 2.3 mph3.7 kmh 29.95 in1014.2 mb - 0.00 in0.0 mm 0.00 in0.0 mm
01:30 AM 58.5°F14.7°C 55.3°F12.9°C 89% 2.3 mph NW3.7 kmh NW 3.5 mph5.6 kmh 29.96 in1014.6 mb - 0.00 in0.0 mm 0.00 in0.0 mm
01:40 AM 58.5°F14.7°C 55.3°F12.9°C 89% 1.2 mph W1.9 kmh W 3.5 mph5.6 kmh 29.96 in1014.6 mb - 0.00 in0.0 mm 0.00 in0.0 mm
01:50 AM 58.5°F14.7°C 55.6°F13.1°C 90% Calm Calm -- 29.96 in1014.6 mb - 0.00 in0.0 mm 0.00 in0.0 mm
02:00 AM 58.5°F14.7°C 55.6°F13.1°C 90% 1.2 mph NW1.9 kmh NW 6.9 mph11.1 kmh 29.97 in1014.9 mb - 0.00 in0.0 mm 0.00 in0.0 mm
02:10 AM 58.5°F14.7°C 55.6°F13.1°C 90% 3.5 mph NW5.6 kmh NW 5.8 mph9.3 kmh 29.97 in1014.9 mb - 0.00 in0.0 mm 0.00 in0.0 mm
02:20 AM 58.5°F14.7°C 55.6°F13.1°C 90% Calm Calm -- 29.97 in1014.9 mb - 0.00 in0.0 mm 0.00 in0.0 mm
02:30 AM 58.4°F14.7°C 55.2°F12.9°C 89% 1.2 mph WNW1.9 kmh WNW 9.2 mph14.8 kmh 29.97 in1014.9 mb - 0.00 in0.0 mm 0.00 in0.0 mm
02:40 AM 58.4°F14.7°C 55.2°F12.9°C 89% 2.3 mph WSW3.7 kmh WSW 5.8 mph9.3 kmh 29.97 in1014.9 mb - 0.00 in0.0 mm 0.00 in0.0 mm
02:50 AM 58.3°F14.6°C 55.1°F12.8°C 89% Calm Calm 4.6 mph7.4 kmh 29.97 in1014.9 mb - 0.00 in0.0 mm 0.00 in0.0 mm
03:00 AM 58.3°F14.6°C 55.4°F13.0°C 90% Calm Calm -- 29.97 in1014.9 mb - 0.00 in0.0 mm 0.00 in0.0 mm
03:10 AM 58.2°F14.6°C 55.3°F12.9°C 90% Calm Calm -- 29.98 in1015.2 mb - 0.00 in0.0 mm 0.00 in0.0 mm
03:20 AM 58.2°F14.6°C 55.3°F12.9°C 90% 1.2 mph NW1.9 kmh NW 3.5 mph5.6 kmh 29.98 in1015.2 mb - 0.00 in0.0 mm 0.00 in0.0 mm
03:30 AM 58.1°F14.5°C 55.2°F12.9°C 90% 2.3 mph NW3.7 kmh NW 5.8 mph9.3 kmh 29.98 in1015.2 mb - 0.00 in0.0 mm 0.00 in0.0 mm
03:40 AM 58.1°F14.5°C 55.2°F12.9°C 90% Calm Calm 2.3 mph3.7 kmh 29.98 in1015.2 mb - 0.00 in0.0 mm 0.00 in0.0 mm
03:50 AM 58.0°F14.4°C 55.1°F12.8°C 90% 1.2 mph WNW1.9 kmh WNW 3.5 mph5.6 kmh 29.98 in1015.2 mb - 0.00 in0.0 mm 0.00 in0.0 mm
04:00 AM 57.9°F14.4°C 55.0°F12.8°C 90% Calm Calm 2.3 mph3.7 kmh 29.98 in1015.2 mb - 0.00 in0.0 mm 0.00 in0.0 mm
04:10 AM 57.7°F14.3°C 54.8°F12.7°C 90% 3.5 mph WNW5.6 kmh WNW 6.9 mph11.1 kmh 29.99 in1015.6 mb - 0.00 in0.0 mm 0.00 in0.0 mm
04:20 AM 57.7°F14.3°C 54.8°F12.7°C 90% Calm Calm 2.3 mph3.7 kmh 29.99 in1015.6 mb - 0.00 in0.0 mm 0.00 in0.0 mm
04:30 AM 57.6°F14.2°C 54.7°F12.6°C 90% Calm Calm 1.2 mph1.9 kmh 29.99 in1015.6 mb - 0.00 in0.0 mm 0.00 in0.0 mm
04:40 AM 57.6°F14.2°C 54.7°F12.6°C 90% Calm Calm -- 30.00 in1015.9 mb - 0.00 in0.0 mm 0.00 in0.0 mm
04:50 AM 57.6°F14.2°C 54.7°F12.6°C 90% Calm Calm 2.3 mph3.7 kmh 30.00 in1015.9 mb - 0.00 in0.0 mm 0.00 in0.0 mm
05:00 AM 57.6°F14.2°C 54.7°F12.6°C 90% 1.2 mph WNW1.9 kmh WNW 4.6 mph7.4 kmh 30.00 in1015.9 mb - 0.00 in0.0 mm 0.00 in0.0 mm
05:10 AM 57.6°F14.2°C 54.7°F12.6°C 90% 2.3 mph WSW3.7 kmh WSW 2.3 mph3.7 kmh 30.00 in1015.9 mb - 0.00 in0.0 mm 0.00 in0.0 mm
05:20 AM 57.6°F14.2°C 55.0°F12.8°C 91% 1.2 mph SW1.9 kmh SW 4.6 mph7.4 kmh 30.01 in1016.3 mb - 0.00 in0.0 mm 0.00 in0.0 mm
05:30 AM 57.7°F14.3°C 55.1°F12.8°C 91% Calm Calm -- 30.01 in1016.3 mb - 0.00 in0.0 mm 0.00 in0.0 mm
05:40 AM 57.7°F14.3°C 55.1°F12.8°C 91% Calm Calm 5.8 mph9.3 kmh 30.01 in1016.3 mb - 0.00 in0.0 mm 0.00 in0.0 mm
05:50 AM 57.8°F14.3°C 55.2°F12.9°C 91% 1.2 mph SW1.9 kmh SW 3.5 mph5.6 kmh 30.01 in1016.3 mb - 0.00 in0.0 mm 0.00 in0.0 mm
06:00 AM 57.9°F14.4°C 55.3°F12.9°C 91% Calm Calm -- 30.02 in1016.6 mb - 0.00 in0.0 mm 0.00 in0.0 mm
06:10 AM 57.9°F14.4°C 55.0°F12.8°C 90% 2.3 mph SW3.7 kmh SW 5.8 mph9.3 kmh 30.02 in1016.6 mb - 0.00 in0.0 mm 0.00 in0.0 mm
06:20 AM 57.8°F14.3°C 55.2°F12.9°C 91% 1.2 mph SW1.9 kmh SW -- 30.02 in1016.6 mb - 0.00 in0.0 mm 0.00 in0.0 mm
06:30 AM 57.9°F14.4°C 55.3°F12.9°C 91% 1.2 mph SW1.9 kmh SW -- 30.02 in1016.6 mb - 0.00 in0.0 mm 0.00 in0.0 mm
06:40 AM 58.1°F14.5°C 55.5°F13.1°C 91% 2.3 mph W3.7 kmh W 4.6 mph7.4 kmh 30.03 in1016.9 mb - 0.00 in0.0 mm 0.00 in0.0 mm
06:50 AM 58.2°F14.6°C 55.6°F13.1°C 91% 1.2 mph NW1.9 kmh NW 10.4 mph16.7 kmh 30.03 in1016.9 mb - 0.00 in0.0 mm 0.00 in0.0 mm
07:00 AM 58.2°F14.6°C 55.3°F12.9°C 90% 1.2 mph WSW1.9 kmh WSW 4.6 mph7.4 kmh 30.04 in1017.3 mb - 0.00 in0.0 mm 0.00 in0.0 mm
07:10 AM 58.4°F14.7°C 55.4°F13.0°C 90% 1.2 mph WSW1.9 kmh WSW 5.8 mph9.3 kmh 30.04 in1017.3 mb - 0.00 in0.0 mm 0.00 in0.0 mm
07:20 AM 58.5°F14.7°C 55.3°F12.9°C 89% 3.5 mph W5.6 kmh W 6.9 mph11.1 kmh 30.04 in1017.3 mb - 0.00 in0.0 mm 0.00 in0.0 mm
07:30 AM 58.6°F14.8°C 55.4°F13.0°C 89% 1.2 mph NW1.9 kmh NW 3.5 mph5.6 kmh 30.05 in1017.6 mb - 0.00 in0.0 mm 0.00 in0.0 mm
07:40 AM 58.9°F14.9°C 55.7°F13.2°C 89% 4.6 mph NW7.4 kmh NW 8.1 mph13.0 kmh 30.05 in1017.6 mb - 0.00 in0.0 mm 0.00 in0.0 mm
07:50 AM 59.4°F15.2°C 55.8°F13.2°C 88% 3.5 mph NW5.6 kmh NW 8.1 mph13.0 kmh 30.05 in1017.6 mb - 0.00 in0.0 mm 0.00 in0.0 mm
08:00 AM 59.7°F15.4°C 55.8°F13.2°C 87% 3.5 mph NW5.6 kmh NW 5.8 mph9.3 kmh 30.06 in1017.9 mb - 0.00 in0.0 mm 0.00 in0.0 mm
08:10 AM 60.0°F15.6°C 56.1°F13.4°C 87% 3.5 mph WNW5.6 kmh WNW 10.4 mph16.7 kmh 30.06 in1017.9 mb - 0.00 in0.0 mm 0.00 in0.0 mm
08:20 AM 60.4°F15.8°C 56.2°F13.4°C 86% 5.8 mph NW9.3 kmh NW 10.4 mph16.7 kmh 30.06 in1017.9 mb - 0.00 in0.0 mm 0.00 in0.0 mm
08:30 AM 60.6°F15.9°C 56.1°F13.4°C 85% 5.8 mph NW9.3 kmh NW 9.2 mph14.8 kmh 30.06 in1017.9 mb - 0.00 in0.0 mm 0.00 in0.0 mm
08:40 AM 60.9°F16.1°C 56.0°F13.3°C 84% 3.5 mph W5.6 kmh W 5.8 mph9.3 kmh 30.07 in1018.3 mb - 0.00 in0.0 mm 0.00 in0.0 mm
08:50 AM 61.4°F16.3°C 56.2°F13.4°C 83% 1.2 mph W1.9 kmh W 5.8 mph9.3 kmh 30.07 in1018.3 mb - 0.00 in0.0 mm 0.00 in0.0 mm
09:00 AM 61.5°F16.4°C 56.0°F13.3°C 82% Calm Calm 4.6 mph7.4 kmh 30.07 in1018.3 mb - 0.00 in0.0 mm 0.00 in0.0 mm
09:10 AM 61.8°F16.6°C 56.2°F13.4°C 82% 2.3 mph WSW3.7 kmh WSW 5.8 mph9.3 kmh 30.07 in1018.3 mb - 0.00 in0.0 mm 0.00 in0.0 mm
09:20 AM 62.2°F16.8°C 56.3°F13.5°C 81% 3.5 mph WNW5.6 kmh WNW 8.1 mph13.0 kmh 30.08 in1018.6 mb - 0.00 in0.0 mm 0.00 in0.0 mm
09:30 AM 62.6°F17.0°C 56.3°F13.5°C 80% 3.5 mph NW5.6 kmh NW 10.4 mph16.7 kmh 30.08 in1018.6 mb - 0.00 in0.0 mm 0.00 in0.0 mm
09:40 AM 63.3°F17.4°C 56.7°F13.7°C 79% 4.6 mph WNW7.4 kmh WNW 8.1 mph13.0 kmh 30.08 in1018.6 mb - 0.00 in0.0 mm 0.00 in0.0 mm
09:50 AM 63.7°F17.6°C 56.4°F13.6°C 77% 5.8 mph NW9.3 kmh NW 11.5 mph18.5 kmh 30.08 in1018.6 mb - 0.00 in0.0 mm 0.00 in0.0 mm
10:00 AM 63.9°F17.7°C 55.8°F13.2°C 75% 1.2 mph W1.9 kmh W 9.2 mph14.8 kmh 30.08 in1018.6 mb - 0.00 in0.0 mm 0.00 in0.0 mm
10:10 AM 64.2°F17.9°C 55.7°F13.2°C 74% 2.3 mph NNW3.7 kmh NNW 11.5 mph18.5 kmh 30.09 in1019.0 mb - 0.00 in0.0 mm 0.00 in0.0 mm
10:20 AM 65.1°F18.4°C 56.2°F13.4°C 73% 3.5 mph NW5.6 kmh NW 11.5 mph18.5 kmh 30.08 in1018.6 mb - 0.00 in0.0 mm 0.00 in0.0 mm
10:30 AM 65.9°F18.8°C 56.2°F13.4°C 71% 5.8 mph NW9.3 kmh NW 9.2 mph14.8 kmh 30.08 in1018.6 mb - 0.00 in0.0 mm 0.00 in0.0 mm
10:40 AM 66.4°F19.1°C 56.3°F13.5°C 70% 3.5 mph WNW5.6 kmh WNW 10.4 mph16.7 kmh 30.08 in1018.6 mb - 0.00 in0.0 mm 0.00 in0.0 mm
10:50 AM 66.9°F19.4°C 55.6°F13.1°C 67% Calm Calm 4.6 mph7.4 kmh 30.09 in1019.0 mb - 0.00 in0.0 mm 0.00 in0.0 mm
11:00 AM 67.5°F19.7°C 55.7°F13.2°C 66% 2.3 mph NW3.7 kmh NW 5.8 mph9.3 kmh 30.09 in1019.0 mb - 0.00 in0.0 mm 0.00 in0.0 mm
11:10 AM 68.3°F20.2°C 56.5°F13.6°C 66% 3.5 mph NW5.6 kmh NW 11.5 mph18.5 kmh 30.08 in1018.6 mb - 0.00 in0.0 mm 0.00 in0.0 mm
11:20 AM 69.0°F20.6°C 55.9°F13.3°C 63% Calm Calm -- 30.08 in1018.6 mb - 0.00 in0.0 mm 0.00 in0.0 mm
11:30 AM 69.2°F20.7°C 55.6°F13.1°C 62% 2.3 mph WNW3.7 kmh WNW 4.6 mph7.4 kmh 30.08 in1018.6 mb - 0.00 in0.0 mm 0.00 in0.0 mm
11:40 AM 69.1°F20.6°C 56.0°F13.3°C 63% 3.5 mph NNW5.6 kmh NNW 8.1 mph13.0 kmh 30.08 in1018.6 mb - 0.00 in0.0 mm 0.00 in0.0 mm
11:50 AM 69.4°F20.8°C 55.8°F13.2°C 62% 3.5 mph W5.6 kmh W 6.9 mph11.1 kmh 30.08 in1018.6 mb - 0.00 in0.0 mm 0.00 in0.0 mm
12:00 PM 69.7°F20.9°C 56.5°F13.6°C 63% 1.2 mph SW1.9 kmh SW 2.3 mph3.7 kmh 30.08 in1018.6 mb - 0.00 in0.0 mm 0.00 in0.0 mm
12:10 PM 70.5°F21.4°C 55.9°F13.3°C 60% 3.5 mph W5.6 kmh W 9.2 mph14.8 kmh 30.08 in1018.6 mb - 0.00 in0.0 mm 0.00 in0.0 mm
12:20 PM 70.6°F21.4°C 56.5°F13.6°C 61% 2.3 mph NW3.7 kmh NW 5.8 mph9.3 kmh 30.08 in1018.6 mb - 0.00 in0.0 mm 0.00 in0.0 mm
12:30 PM 70.8°F21.6°C 55.8°F13.2°C 59% 4.6 mph NNW7.4 kmh NNW 5.8 mph9.3 kmh 30.08 in1018.6 mb - 0.00 in0.0 mm 0.00 in0.0 mm
12:40 PM 70.8°F21.6°C 56.2°F13.4°C 60% 1.2 mph NW1.9 kmh NW 6.9 mph11.1 kmh 30.08 in1018.6 mb - 0.00 in0.0 mm 0.00 in0.0 mm
12:50 PM 71.0°F21.7°C 56.4°F13.6°C 60% 1.2 mph NW1.9 kmh NW 9.2 mph14.8 kmh 30.08 in1018.6 mb - 0.00 in0.0 mm 0.00 in0.0 mm
01:00 PM 71.3°F21.8°C 56.2°F13.4°C 59% 2.3 mph SW3.7 kmh SW 9.2 mph14.8 kmh 30.08 in1018.6 mb - 0.00 in0.0 mm 0.00 in0.0 mm
01:10 PM 71.3°F21.8°C 55.8°F13.2°C 58% 2.3 mph W3.7 kmh W 6.9 mph11.1 kmh 30.08 in1018.6 mb - 0.00 in0.0 mm 0.00 in0.0 mm
01:20 PM 71.7°F22.1°C 55.7°F13.2°C 57% 2.3 mph NW3.7 kmh NW 9.2 mph14.8 kmh 30.08 in1018.6 mb - 0.00 in0.0 mm 0.00 in0.0 mm
01:30 PM 72.0°F22.2°C 56.4°F13.6°C 58% 2.3 mph NW3.7 kmh NW 2.3 mph3.7 kmh 30.08 in1018.6 mb - 0.00 in0.0 mm 0.00 in0.0 mm
01:40 PM 72.3°F22.4°C 56.7°F13.7°C 58% 3.5 mph NNW5.6 kmh NNW 5.8 mph9.3 kmh 30.08 in1018.6 mb - 0.00 in0.0 mm 0.00 in0.0 mm
01:50 PM 71.7°F22.1°C 56.1°F13.4°C 58% 6.9 mph NW11.1 kmh NW 6.9 mph11.1 kmh 30.08 in1018.6 mb - 0.00 in0.0 mm 0.00 in0.0 mm
02:00 PM 71.6°F22.0°C 55.6°F13.1°C 57% 5.8 mph NW9.3 kmh NW 6.9 mph11.1 kmh 30.08 in1018.6 mb - 0.00 in0.0 mm 0.00 in0.0 mm
02:10 PM 71.8°F22.1°C 55.7°F13.2°C 57% 2.3 mph WNW3.7 kmh WNW 4.6 mph7.4 kmh 30.09 in1019.0 mb - 0.00 in0.0 mm 0.00 in0.0 mm
02:20 PM 72.1°F22.3°C 55.0°F12.8°C 55% 3.5 mph WSW5.6 kmh WSW 10.4 mph16.7 kmh 30.09 in1019.0 mb - 0.00 in0.0 mm 0.00 in0.0 mm
02:30 PM 71.8°F22.1°C 54.8°F12.7°C 55% 5.8 mph NW9.3 kmh NW 6.9 mph11.1 kmh 30.09 in1019.0 mb - 0.00 in0.0 mm 0.00 in0.0 mm
02:40 PM 71.7°F22.1°C 54.6°F12.6°C 55% 3.5 mph NNW5.6 kmh NNW 8.1 mph13.0 kmh 30.09 in1019.0 mb - 0.00 in0.0 mm 0.00 in0.0 mm
02:50 PM 72.0°F22.2°C 54.9°F12.7°C 55% 5.8 mph NNW9.3 kmh NNW 10.4 mph16.7 kmh 30.09 in1019.0 mb - 0.00 in0.0 mm 0.00 in0.0 mm
03:00 PM 71.8°F22.1°C 54.8°F12.7°C 55% 3.5 mph NW5.6 kmh NW 2.3 mph3.7 kmh 30.08 in1018.6 mb - 0.00 in0.0 mm 0.00 in0.0 mm
03:10 PM 71.5°F21.9°C 55.0°F12.8°C 56% 4.6 mph NW7.4 kmh NW 8.1 mph13.0 kmh 30.08 in1018.6 mb - 0.00 in0.0 mm 0.00 in0.0 mm
03:20 PM 71.8°F22.1°C 55.7°F13.2°C 57% 3.5 mph NNW5.6 kmh NNW 5.8 mph9.3 kmh 30.09 in1019.0 mb - 0.00 in0.0 mm 0.00 in0.0 mm
03:30 PM 71.9°F22.2°C 55.3°F12.9°C 56% 2.3 mph NW3.7 kmh NW 5.8 mph9.3 kmh 30.09 in1019.0 mb - 0.00 in0.0 mm 0.00 in0.0 mm
03:40 PM 71.5°F21.9°C 55.9°F13.3°C 58% 4.6 mph NW7.4 kmh NW 5.8 mph9.3 kmh 30.09 in1019.0 mb - 0.00 in0.0 mm 0.00 in0.0 mm
03:50 PM 70.9°F21.6°C 56.8°F13.8°C 61% 2.3 mph NW3.7 kmh NW 6.9 mph11.1 kmh 30.08 in1018.6 mb - 0.00 in0.0 mm 0.00 in0.0 mm
04:00 PM 70.5°F21.4°C 57.7°F14.3°C 64% 5.8 mph NW9.3 kmh NW 9.2 mph14.8 kmh 30.08 in1018.6 mb - 0.00 in0.0 mm 0.00 in0.0 mm
04:10 PM 69.8°F21.0°C 57.5°F14.2°C 65% 3.5 mph NNW5.6 kmh NNW 6.9 mph11.1 kmh 30.08 in1018.6 mb - 0.00 in0.0 mm 0.00 in0.0 mm
04:20 PM 69.5°F20.8°C 57.6°F14.2°C 66% 1.2 mph NW1.9 kmh NW 6.9 mph11.1 kmh 30.08 in1018.6 mb - 0.00 in0.0 mm 0.00 in0.0 mm
04:30 PM 69.2°F20.7°C 57.4°F14.1°C 66% 2.3 mph NW3.7 kmh NW 5.8 mph9.3 kmh 30.08 in1018.6 mb - 0.00 in0.0 mm 0.00 in0.0 mm
04:40 PM 68.9°F20.5°C 57.1°F13.9°C 66% 6.9 mph NNW11.1 kmh NNW 11.5 mph18.5 kmh 30.08 in1018.6 mb - 0.00 in0.0 mm 0.00 in0.0 mm
04:50 PM 68.0°F20.0°C 57.0°F13.9°C 68% 2.3 mph NW3.7 kmh NW 4.6 mph7.4 kmh 30.08 in1018.6 mb - 0.00 in0.0 mm 0.00 in0.0 mm
05:00 PM 67.8°F19.9°C 56.9°F13.8°C 68% 4.6 mph NW7.4 kmh NW 6.9 mph11.1 kmh 30.08 in1018.6 mb - 0.00 in0.0 mm 0.00 in0.0 mm
05:10 PM 67.6°F19.8°C 56.7°F13.7°C 68% 2.3 mph WNW3.7 kmh WNW 5.8 mph9.3 kmh 30.08 in1018.6 mb - 0.00 in0.0 mm 0.00 in0.0 mm
05:20 PM 67.5°F19.7°C 56.6°F13.7°C 68% 4.6 mph NW7.4 kmh NW 9.2 mph14.8 kmh 30.08 in1018.6 mb - 0.00 in0.0 mm 0.00 in0.0 mm
05:30 PM 67.2°F19.6°C 56.7°F13.7°C 69% 5.8 mph NNW9.3 kmh NNW 11.5 mph18.5 kmh 30.09 in1019.0 mb - 0.00 in0.0 mm 0.00 in0.0 mm
05:40 PM 66.8°F19.3°C 56.7°F13.7°C 70% 5.8 mph NW9.3 kmh NW 10.4 mph16.7 kmh 30.09 in1019.0 mb - 0.00 in0.0 mm 0.00 in0.0 mm
05:50 PM 66.2°F19.0°C 56.5°F13.6°C 71% Calm Calm 5.8 mph9.3 kmh 30.09 in1019.0 mb - 0.00 in0.0 mm 0.00 in0.0 mm
06:00 PM 65.6°F18.7°C 56.7°F13.7°C 73% 2.3 mph NW3.7 kmh NW 5.8 mph9.3 kmh 30.09 in1019.0 mb - 0.00 in0.0 mm 0.00 in0.0 mm
06:10 PM 65.3°F18.5°C 56.8°F13.8°C 74% 2.3 mph WNW3.7 kmh WNW 4.6 mph7.4 kmh 30.09 in1019.0 mb - 0.00 in0.0 mm 0.00 in0.0 mm
06:20 PM 65.2°F18.4°C 55.6°F13.1°C 71% 5.8 mph W9.3 kmh W 6.9 mph11.1 kmh 30.09 in1019.0 mb - 0.00 in0.0 mm 0.00 in0.0 mm
06:30 PM 64.8°F18.2°C 55.6°F13.1°C 72% 5.8 mph SW9.3 kmh SW 12.7 mph20.4 kmh 30.09 in1019.0 mb - 0.00 in0.0 mm 0.00 in0.0 mm
06:40 PM 64.2°F17.9°C 55.4°F13.0°C 73% 1.2 mph WSW1.9 kmh WSW 1.2 mph1.9 kmh 30.09 in1019.0 mb - 0.00 in0.0 mm 0.00 in0.0 mm
06:50 PM 64.1°F17.8°C 55.3°F12.9°C 73% 3.5 mph SW5.6 kmh SW 4.6 mph7.4 kmh 30.09 in1019.0 mb - 0.00 in0.0 mm 0.00 in0.0 mm
07:10 PM 64.0°F17.8°C 55.9°F13.3°C 75% Calm Calm 5.8 mph9.3 kmh 30.09 in1019.0 mb - 0.00 in0.0 mm 0.00 in0.0 mm
07:20 PM 63.7°F17.6°C 56.0°F13.3°C 76% Calm Calm 3.5 mph5.6 kmh 30.09 in1019.0 mb - 0.00 in0.0 mm 0.00 in0.0 mm
07:30 PM 63.6°F17.6°C 55.9°F13.3°C 76% 1.2 mph SW1.9 kmh SW 1.2 mph1.9 kmh 30.09 in1019.0 mb - 0.00 in0.0 mm 0.00 in0.0 mm
07:40 PM 63.5°F17.5°C 56.2°F13.4°C 77% 2.3 mph WSW3.7 kmh WSW 5.8 mph9.3 kmh 30.09 in1019.0 mb - 0.00 in0.0 mm 0.00 in0.0 mm
07:50 PM 63.4°F17.4°C 56.1°F13.4°C 77% 1.2 mph SW1.9 kmh SW 3.5 mph5.6 kmh 30.09 in1019.0 mb - 0.00 in0.0 mm 0.00 in0.0 mm
08:00 PM 63.4°F17.4°C 56.4°F13.6°C 78% 3.5 mph WSW5.6 kmh WSW 6.9 mph11.1 kmh 30.09 in1019.0 mb - 0.00 in0.0 mm 0.00 in0.0 mm
08:10 PM 63.3°F17.4°C 56.3°F13.5°C 78% 1.2 mph SW1.9 kmh SW 4.6 mph7.4 kmh 30.09 in1019.0 mb - 0.00 in0.0 mm 0.00 in0.0 mm
08:20 PM 63.2°F17.3°C 56.6°F13.7°C 79% 3.5 mph WSW5.6 kmh WSW 9.2 mph14.8 kmh 30.09 in1019.0 mb - 0.00 in0.0 mm 0.00 in0.0 mm
08:30 PM 62.9°F17.2°C 56.3°F13.5°C 79% 3.5 mph SW5.6 kmh SW 8.1 mph13.0 kmh 30.09 in1019.0 mb - 0.00 in0.0 mm 0.00 in0.0 mm
08:50 PM 62.6°F17.0°C 56.7°F13.7°C 81% 2.3 mph SW3.7 kmh SW 9.2 mph14.8 kmh 30.09 in1019.0 mb - 0.00 in0.0 mm 0.00 in0.0 mm
09:00 PM 62.4°F16.9°C 56.8°F13.8°C 82% 2.3 mph SW3.7 kmh SW 3.5 mph5.6 kmh 30.09 in1019.0 mb - 0.00 in0.0 mm 0.00 in0.0 mm
09:10 PM 62.3°F16.8°C 57.1°F13.9°C 83% 1.2 mph WSW1.9 kmh WSW 3.5 mph5.6 kmh 30.09 in1019.0 mb - 0.00 in0.0 mm 0.00 in0.0 mm
09:20 PM 62.2°F16.8°C 57.3°F14.1°C 84% Calm Calm 4.6 mph7.4 kmh 30.09 in1019.0 mb - 0.00 in0.0 mm 0.00 in0.0 mm
09:30 PM 62.1°F16.7°C 57.6°F14.2°C 85% Calm Calm -- 30.09 in1019.0 mb - 0.00 in0.0 mm 0.00 in0.0 mm
09:40 PM 62.0°F16.7°C 57.4°F14.1°C 85% 1.2 mph SW1.9 kmh SW 8.1 mph13.0 kmh 30.09 in1019.0 mb - 0.00 in0.0 mm 0.00 in0.0 mm
09:50 PM 61.9°F16.6°C 57.7°F14.3°C 86% 1.2 mph WSW1.9 kmh WSW 3.5 mph5.6 kmh 30.10 in1019.3 mb - 0.00 in0.0 mm 0.00 in0.0 mm
10:00 PM 61.8°F16.6°C 57.9°F14.4°C 87% 3.5 mph SW5.6 kmh SW 5.8 mph9.3 kmh 30.09 in1019.0 mb - 0.00 in0.0 mm 0.00 in0.0 mm
10:10 PM 61.7°F16.5°C 57.8°F14.3°C 87% 1.2 mph SW1.9 kmh SW 4.6 mph7.4 kmh 30.10 in1019.3 mb - 0.00 in0.0 mm 0.00 in0.0 mm
10:20 PM 61.7°F16.5°C 58.1°F14.5°C 88% 4.6 mph SW7.4 kmh SW 6.9 mph11.1 kmh 30.10 in1019.3 mb - 0.00 in0.0 mm 0.00 in0.0 mm
10:30 PM 61.7°F16.5°C 58.1°F14.5°C 88% Calm Calm -- 30.10 in1019.3 mb - 0.00 in0.0 mm 0.00 in0.0 mm
10:40 PM 61.7°F16.5°C 58.1°F14.5°C 88% Calm Calm 3.5 mph5.6 kmh 30.10 in1019.3 mb - 0.00 in0.0 mm 0.00 in0.0 mm
10:50 PM 61.6°F16.4°C 58.1°F14.5°C 88% 1.2 mph SW1.9 kmh SW 2.3 mph3.7 kmh 30.10 in1019.3 mb - 0.00 in0.0 mm 0.00 in0.0 mm
11:00 PM 61.6°F16.4°C 58.0°F14.4°C 88% Calm Calm -- 30.10 in1019.3 mb - 0.00 in0.0 mm 0.00 in0.0 mm
11:10 PM 61.6°F16.4°C 58.0°F14.4°C 88% 1.2 mph SW1.9 kmh SW 3.5 mph5.6 kmh 30.09 in1019.0 mb - 0.00 in0.0 mm 0.00 in0.0 mm
11:20 PM 61.7°F16.5°C 58.1°F14.5°C 88% 5.8 mph SW9.3 kmh SW 6.9 mph11.1 kmh 30.10 in1019.3 mb - 0.00 in0.0 mm 0.00 in0.0 mm
11:30 PM 61.8°F16.6°C 58.2°F14.6°C 88% 5.8 mph WSW9.3 kmh WSW 6.9 mph11.1 kmh 30.10 in1019.3 mb - 0.00 in0.0 mm 0.00 in0.0 mm
11:40 PM 61.8°F16.6°C 58.2°F14.6°C 88% Calm Calm 3.5 mph5.6 kmh 30.10 in1019.3 mb - 0.00 in0.0 mm 0.00 in0.0 mm
11:50 PM 61.8°F16.6°C 58.2°F14.6°C 88% 2.3 mph SW3.7 kmh SW 6.9 mph11.1 kmh 30.10 in1019.3 mb - 0.00 in0.0 mm 0.00 in0.0 mm